Time;durP1;ratioP1;P1;durP2;ratioP2;P2;SDS_P1;SDS_P2;PMS_P1;PMS_P2;Temp;Humidity;BMP_temperature;BMP_pressure;BME280_temperature;BME280_humidity;BME280_pressure;Samples;Min_cycle;Max_cycle;Signal;HPM_P1;HPM_P2
2021/10/02 00:35:06;;;;;;;12.18;7.63;;;409.60;1484.80;;;;;;4843566;29;20109;-71
2021/10/02 00:45:26;;;;;;;10.32;7.65;;;384.90;1459.20;;;;;;4938873;29;20183;-69
2021/10/02 00:47:55;;;;;;;14.32;7.28;;;384.90;1459.20;;;;;;4938654;29;20064;-69
2021/10/02 00:50:21;;;;;;;15.57;7.95;;;384.90;1459.20;;;;;;4938698;29;20044;-71
2021/10/02 00:52:48;;;;;;;15.52;7.65;;;384.90;1459.20;;;;;;4938608;29;20102;-71
2021/10/02 00:55:14;;;;;;;12.30;7.85;;;384.90;1459.20;;;;;;4938170;29;20034;-68
2021/10/02 00:57:40;;;;;;;14.55;7.85;;;384.90;1459.20;;;;;;4938572;29;20063;-69
2021/10/02 01:00:08;;;;;;;12.80;7.88;;;384.90;1459.20;;;;;;4938680;29;20083;-71
2021/10/02 01:02:36;;;;;;;11.50;7.63;;;384.90;1459.20;;;;;;4938609;29;20540;-71
2021/10/02 01:05:14;;;;;;;11.00;8.02;;;384.90;1459.20;;;;;;4938849;29;20034;-69
2021/10/02 01:08:19;;;;;;;14.38;8.43;;;384.90;1459.20;;;;;;4938286;29;20030;-69
2021/10/02 01:11:17;;;;;;;11.95;8.00;;;384.90;1459.20;;;;;;4845614;29;20056;-71
2021/10/02 01:14:07;;;;;;;12.38;8.10;;;384.90;1459.20;;;;;;4824354;29;20037;-69
2021/10/02 01:16:37;;;;;;;14.75;7.93;;;384.90;1433.60;;;;;;4823693;29;20046;-69
2021/10/02 01:19:05;;;;;;;17.80;8.10;;;384.80;1459.20;;;;;;4823948;29;20448;-71
2021/10/02 01:22:09;;;;;;;19.35;9.10;;;384.80;1459.20;;;;;;4824364;29;20038;-71
2021/10/02 01:25:02;;;;;;;10.93;8.10;;;384.80;1459.20;;;;;;4824291;29;20071;-72
2021/10/02 01:27:49;;;;;;;19.05;9.07;;;384.70;1459.20;;;;;;4824404;29;20050;-71
2021/10/02 01:30:26;;;;;;;16.00;8.20;;;384.60;1459.20;;;;;;4824216;29;20046;-71
2021/10/02 01:33:06;;;;;;;10.65;7.75;;;384.60;1459.20;;;;;;4824194;29;20041;-70
2021/10/02 01:35:49;;;;;;;12.90;7.47;;;384.60;1459.20;;;;;;4824074;29;20429;-71
2021/10/02 01:49:07;;;;;;;15.05;9.68;;;384.60;1484.80;;;;;;4903923;29;20043;-71
2021/10/02 01:51:35;;;;;;;12.05;8.38;;;384.60;1459.20;;;;;;4937897;29;20031;-69
2021/10/02 01:54:02;;;;;;;12.73;8.18;;;384.50;1459.20;;;;;;4937588;29;20028;-69
2021/10/02 01:56:29;;;;;;;18.90;8.95;;;384.50;1484.80;;;;;;4937747;29;20038;-68
2021/10/02 01:58:56;;;;;;;12.18;8.25;;;384.50;1459.20;;;;;;4937575;29;20042;-68
2021/10/02 02:01:22;;;;;;;19.17;8.57;;;384.50;1459.20;;;;;;4937460;29;20035;-68
2021/10/02 02:03:55;;;;;;;12.70;9.07;;;384.50;1484.80;;;;;;4937304;29;20024;-68
2021/10/02 02:06:23;;;;;;;13.48;8.70;;;384.50;1484.80;;;;;;4937293;29;20075;-68
2021/10/02 02:08:50;;;;;;;13.75;8.40;;;384.50;1484.80;;;;;;4919741;29;20059;-69
2021/10/02 02:11:17;;;;;;;17.48;8.30;;;384.40;1484.80;;;;;;4937256;29;20059;-70
2021/10/02 02:13:44;;;;;;;11.90;8.77;;;384.40;1484.80;;;;;;4937316;29;20020;-71
2021/10/02 02:16:11;;;;;;;12.30;8.75;;;384.30;1484.80;;;;;;4937182;29;20528;-71
2021/10/02 02:18:38;;;;;;;12.75;7.88;;;384.30;1484.80;;;;;;4937155;29;20035;-71
2021/10/02 02:21:09;;;;;;;16.73;8.85;;;384.30;1484.80;;;;;;4937207;29;20393;-71
2021/10/02 02:23:35;;;;;;;17.13;8.77;;;384.30;1484.80;;;;;;4936821;29;20028;-69
2021/10/02 02:26:06;;;;;;;13.20;8.18;;;384.20;1484.80;;;;;;4937198;29;20027;-69
2021/10/02 02:28:34;;;;;;;11.95;7.95;;;384.20;1484.80;;;;;;4937070;29;20063;-71
2021/10/02 02:31:00;;;;;;;14.45;8.43;;;384.20;1484.80;;;;;;4937117;29;20379;-69
2021/10/02 02:33:26;;;;;;;13.95;8.57;;;384.20;1484.80;;;;;;4936907;29;20031;-69
2021/10/02 02:35:53;;;;;;;17.58;9.13;;;384.20;1484.80;;;;;;4936589;29;20030;-69
2021/10/02 02:38:19;;;;;;;15.15;8.15;;;384.20;1484.80;;;;;;4936638;29;20028;-69
2021/10/02 02:40:47;;;;;;;15.25;8.85;;;384.20;1484.80;;;;;;4936890;29;20024;-70
2021/10/02 02:43:13;;;;;;;14.75;8.23;;;384.30;1459.20;;;;;;4936506;29;20047;-68
2021/10/02 02:45:43;;;;;;;13.95;8.40;;;384.20;1459.20;;;;;;4936829;29;20055;-69
2021/10/02 02:48:17;;;;;;;15.13;9.52;;;384.20;1459.20;;;;;;4936608;29;20481;-71
2021/10/02 02:50:58;;;;;;;;;;;384.20;1459.20;;;;;;4937119;29;20047;-69
2021/10/02 02:53:47;;;;;;;15.82;8.52;;;384.20;1459.20;;;;;;4936573;29;19938;-69
2021/10/02 02:56:21;;;;;;;19.65;8.07;;;384.20;1459.20;;;;;;4936697;29;20027;-70
2021/10/02 02:58:51;;;;;;;14.23;8.13;;;384.20;1459.20;;;;;;4936712;29;20027;-71
2021/10/02 03:01:20;;;;;;;14.68;8.40;;;384.10;1459.20;;;;;;4936625;29;20027;-71
2021/10/02 03:03:47;;;;;;;18.63;7.88;;;384.10;1459.20;;;;;;4936667;29;20374;-68
2021/10/02 03:06:18;;;;;;;10.45;7.53;;;384.10;1459.20;;;;;;4936481;29;20028;-71
2021/10/02 03:08:46;;;;;;;11.13;7.97;;;384.00;1459.20;;;;;;4936321;29;20036;-69
2021/10/02 03:11:13;;;;;;;9.85;7.00;;;384.00;1459.20;;;;;;4936443;29;20153;-69
2021/10/02 03:13:40;;;;;;;14.13;8.68;;;384.00;1459.20;;;;;;4936471;29;20466;-71
2021/10/02 03:16:12;;;;;;;14.40;7.28;;;384.00;1459.20;;;;;;4936492;29;20035;-71
2021/10/02 03:18:49;;;;;;;26.20;8.05;;;384.00;1459.20;;;;;;4936487;29;20039;-69
2021/10/02 03:21:16;;;;;;;15.30;7.90;;;384.00;1459.20;;;;;;4940463;29;20058;-69
2021/10/02 03:23:44;;;;;;;11.43;7.32;;;384.10;1459.20;;;;;;4940219;29;20534;-69
2021/10/02 03:26:11;;;;;;;20.90;7.35;;;384.10;1433.60;;;;;;4940221;29;20059;-71
2021/10/02 03:28:38;;;;;;;18.20;8.07;;;384.10;1433.60;;;;;;4940176;29;20091;-71
2021/10/02 03:31:04;;;;;;;14.63;7.30;;;384.10;1433.60;;;;;;4940344;29;20031;-69
2021/10/02 03:33:31;;;;;;;12.45;6.97;;;384.00;1433.60;;;;;;4939876;29;20054;-69
2021/10/02 03:35:57;;;;;;;14.27;7.47;;;384.00;1433.60;;;;;;4939736;29;20032;-69
2021/10/02 03:38:23;;;;;;;12.00;7.13;;;384.00;1433.60;;;;;;4939947;29;20032;-69
2021/10/02 03:40:50;;;;;;;11.93;7.72;;;384.10;1433.60;;;;;;4940082;29;20046;-68
2021/10/02 03:43:16;;;;;;;13.07;7.47;;;384.00;1433.60;;;;;;4940104;29;20036;-68
2021/10/02 03:45:42;;;;;;;12.20;6.88;;;384.00;1459.20;;;;;;4940056;29;20509;-68
2021/10/02 03:48:07;;;;;;;16.50;7.55;;;384.00;1433.60;;;;;;4940007;29;20032;-68
2021/10/02 03:50:34;;;;;;;12.60;7.47;;;384.00;1433.60;;;;;;4939984;29;20058;-68
2021/10/02 03:52:59;;;;;;;11.70;7.55;;;384.00;1433.60;;;;;;4940142;29;20365;-68
2021/10/02 03:55:25;;;;;;;11.07;7.00;;;384.00;1433.60;;;;;;4939722;29;20027;-68
2021/10/02 03:57:51;;;;;;;11.00;6.60;;;359.30;1433.60;;;;;;4939831;29;20115;-68
2021/10/02 04:00:17;;;;;;;17.15;7.25;;;359.30;1433.60;;;;;;4939672;29;20467;-68
2021/10/02 04:02:43;;;;;;;14.70;7.30;;;359.30;1433.60;;;;;;4939794;29;20031;-68
2021/10/02 04:05:13;;;;;;;9.18;6.25;;;359.30;1433.60;;;;;;4939477;29;20113;-68
2021/10/02 04:07:38;;;;;;;11.23;7.25;;;359.30;1433.60;;;;;;4939234;29;20032;-68
2021/10/02 04:10:08;;;;;;;14.60;6.60;;;359.30;1433.60;;;;;;4939474;29;20046;-68
2021/10/02 04:12:34;;;;;;;15.27;7.03;;;359.30;1433.60;;;;;;4939477;29;20466;-68
2021/10/02 04:15:00;;;;;;;12.45;7.00;;;359.30;1433.60;;;;;;4939458;29;20038;-68
2021/10/02 04:17:26;;;;;;;9.93;6.43;;;359.30;1433.60;;;;;;4939421;29;20031;-68
2021/10/02 04:19:51;;;;;;;12.45;6.38;;;359.30;1408.00;;;;;;4939525;29;20027;-68
2021/10/02 04:22:17;;;;;;;10.27;5.82;;;359.30;1433.60;;;;;;4939316;29;20390;-68
2021/10/02 04:24:43;;;;;;;17.60;6.28;;;359.30;1408.00;;;;;;4939301;29;20148;-68
2021/10/02 04:27:09;;;;;;;12.38;6.57;;;359.30;1408.00;;;;;;4939140;29;20043;-68
2021/10/02 04:29:35;;;;;;;11.70;6.78;;;359.30;1433.60;;;;;;4922080;29;20541;-68
2021/10/02 04:32:01;;;;;;;12.93;6.60;;;359.30;1433.60;;;;;;4937768;29;20164;-68
2021/10/02 04:34:26;;;;;;;13.50;7.18;;;359.30;1433.60;;;;;;4938684;29;20067;-68
2021/10/02 04:36:52;;;;;;;13.55;8.23;;;359.30;1408.00;;;;;;4938844;29;20048;-68
2021/10/02 04:39:18;;;;;;;18.27;7.45;;;359.30;1433.60;;;;;;4939022;29;20048;-68
2021/10/02 04:41:44;;;;;;;13.10;7.22;;;359.30;1433.60;;;;;;4938944;29;20030;-68
2021/10/02 04:44:09;;;;;;;9.60;6.50;;;359.30;1433.60;;;;;;4939092;29;20434;-68
2021/10/02 04:46:35;;;;;;;9.52;6.18;;;359.30;1433.60;;;;;;4938743;29;20462;-68
2021/10/02 04:49:01;;;;;;;14.80;6.10;;;359.30;1433.60;;;;;;4938744;29;20119;-68
2021/10/02 04:51:27;;;;;;;16.13;7.88;;;359.30;1433.60;;;;;;4938681;29;20461;-68
2021/10/02 04:53:53;;;;;;;14.15;6.22;;;359.30;1408.00;;;;;;4938861;29;20027;-68
2021/10/02 04:56:20;;;;;;;15.75;6.68;;;359.30;1433.60;;;;;;4938208;29;20382;-68
2021/10/02 04:58:46;;;;;;;9.98;6.22;;;359.20;1433.60;;;;;;4938604;29;20031;-68
2021/10/02 05:01:12;;;;;;;11.77;6.45;;;359.20;1433.60;;;;;;4938776;29;20024;-68
2021/10/02 05:03:39;;;;;;;14.02;6.65;;;359.20;1433.60;;;;;;4938582;29;20075;-68
2021/10/02 05:06:06;;;;;;;10.18;6.25;;;359.20;1433.60;;;;;;4938425;29;20444;-68
2021/10/02 05:08:32;;;;;;;10.32;7.00;;;359.20;1433.60;;;;;;4938380;29;20062;-68
2021/10/02 05:10:59;;;;;;;13.23;6.75;;;359.20;1433.60;;;;;;4938285;29;20036;-68
2021/10/02 05:13:25;;;;;;;10.80;6.40;;;359.10;1433.60;;;;;;4938336;29;20023;-68
2021/10/02 05:15:50;;;;;;;9.82;6.38;;;359.10;1433.60;;;;;;4938472;29;20059;-68
2021/10/02 05:18:16;;;;;;;10.55;6.40;;;359.10;1433.60;;;;;;4938922;29;20024;-68
2021/10/02 05:20:42;;;;;;;16.02;6.28;;;359.10;1433.60;;;;;;4938533;29;20031;-68
2021/10/02 05:23:08;;;;;;;12.50;6.18;;;359.10;1433.60;;;;;;4938137;29;20048;-68
2021/10/02 05:25:34;;;;;;;10.55;6.32;;;359.10;1433.60;;;;;;4938107;29;20044;-68
2021/10/02 05:28:00;;;;;;;12.88;6.68;;;359.10;1459.20;;;;;;4920715;29;20063;-68
2021/10/02 05:30:25;;;;;;;14.18;6.63;;;359.10;1459.20;;;;;;4937708;29;20035;-68
2021/10/02 05:32:51;;;;;;;13.27;6.43;;;359.10;1459.20;;;;;;4937819;29;20027;-68
2021/10/02 05:35:17;;;;;;;11.63;7.10;;;359.10;1433.60;;;;;;4938097;29;20067;-68
2021/10/02 05:37:43;;;;;;;16.35;6.25;;;359.10;1459.20;;;;;;4937659;29;20395;-68
2021/10/02 05:40:10;;;;;;;14.82;6.70;;;359.10;1433.60;;;;;;4938132;29;20105;-68
2021/10/02 05:42:36;;;;;;;12.25;6.25;;;359.10;1433.60;;;;;;4937076;29;20473;-68
2021/10/02 05:45:03;;;;;;;12.43;5.57;;;359.10;1459.20;;;;;;4937902;29;20035;-68
2021/10/02 05:47:28;;;;;;;21.90;7.28;;;359.10;1433.60;;;;;;4937872;29;20027;-68
2021/10/02 05:49:54;;;;;;;15.32;6.45;;;359.10;1459.20;;;;;;4937707;29;20132;-68
2021/10/02 05:52:20;;;;;;;12.70;6.93;;;359.10;1459.20;;;;;;4937790;29;20023;-68
2021/10/02 05:54:46;;;;;;;18.30;6.88;;;359.10;1433.60;;;;;;4937737;29;20036;-68
2021/10/02 05:57:11;;;;;;;13.77;7.72;;;359.10;1433.60;;;;;;4937670;29;20047;-68
2021/10/02 05:59:37;;;;;;;14.43;6.63;;;359.10;1433.60;;;;;;4937856;29;20035;-68
2021/10/02 06:02:03;;;;;;;14.73;7.00;;;359.10;1433.60;;;;;;4920086;29;20118;-68
2021/10/02 06:04:29;;;;;;;13.77;6.50;;;359.10;1433.60;;;;;;4937345;29;20039;-68
2021/10/02 06:06:54;;;;;;;11.73;6.75;;;359.10;1459.20;;;;;;4937491;29;20028;-68
2021/10/02 06:09:20;;;;;;;14.85;7.03;;;359.10;1433.60;;;;;;4937142;29;20469;-68
2021/10/02 06:11:46;;;;;;;14.45;6.53;;;359.20;1433.60;;;;;;4937318;29;20039;-68
2021/10/02 06:14:12;;;;;;;13.35;6.68;;;359.10;1459.20;;;;;;4937383;29;20070;-68
2021/10/02 06:16:38;;;;;;;10.77;7.03;;;359.20;1459.20;;;;;;4937193;29;20497;-68
2021/10/02 06:19:05;;;;;;;10.40;6.35;;;359.20;1433.60;;;;;;4937204;29;20091;-66
2021/10/02 06:21:31;;;;;;;14.07;6.80;;;359.20;1433.60;;;;;;4937167;29;20359;-67
2021/10/02 06:23:59;;;;;;;9.32;5.78;;;359.30;1433.60;;;;;;4937009;29;20066;-67
2021/10/02 06:26:27;;;;;;;12.95;6.97;;;384.00;1459.20;;;;;;4936968;29;20094;-66
2021/10/02 06:28:53;;;;;;;20.67;6.25;;;359.30;1459.20;;;;;;4936908;29;20027;-67
2021/10/02 06:31:19;;;;;;;7.85;6.00;;;384.00;1459.20;;;;;;4937214;29;20046;-67
2021/10/02 06:33:45;;;;;;;15.32;6.00;;;384.00;1459.20;;;;;;4937171;29;20048;-66
2021/10/02 06:36:12;;;;;;;15.15;6.15;;;384.10;1433.60;;;;;;4936594;29;20051;-66
2021/10/02 06:38:38;;;;;;;10.95;6.45;;;384.20;1433.60;;;;;;4936660;29;20027;-67
2021/10/02 06:41:04;;;;;;;9.23;6.35;;;384.20;1408.00;;;;;;4936732;29;20035;-67
2021/10/02 06:43:31;;;;;;;13.20;6.55;;;384.30;1408.00;;;;;;4936853;29;20027;-66
2021/10/02 06:45:57;;;;;;;19.88;5.95;;;384.40;1408.00;;;;;;4936861;29;20027;-66
2021/10/02 06:48:23;;;;;;;18.23;5.95;;;384.50;1408.00;;;;;;4937001;29;20040;-66
2021/10/02 06:50:49;;;;;;;14.07;5.13;;;384.60;1382.40;;;;;;4936010;29;20090;-67
2021/10/02 06:53:15;;;;;;;19.35;5.93;;;384.70;1382.40;;;;;;4936068;29;20471;-67
2021/10/02 06:55:41;;;;;;;12.73;4.60;;;384.80;1356.80;;;;;;4936571;29;20114;-67
2021/10/02 06:58:07;;;;;;;11.45;5.05;;;384.80;1356.80;;;;;;4936625;29;20085;-66
2021/10/02 07:00:34;;;;;;;10.88;4.80;;;409.60;1382.40;;;;;;4936636;29;20040;-66
2021/10/02 07:03:00;;;;;;;14.10;4.72;;;409.70;1356.80;;;;;;4936609;29;20019;-66
2021/10/02 07:05:26;;;;;;;14.80;4.95;;;409.80;1382.40;;;;;;4936455;29;20158;-66
2021/10/02 07:07:51;;;;;;;16.75;5.30;;;409.90;1356.80;;;;;;4936778;29;20027;-67
2021/10/02 07:10:21;;;;;;;13.57;5.38;;;410.00;1331.20;;;;;;4936951;29;20032;-67
2021/10/02 07:12:51;;;;;;;12.73;4.97;;;410.20;1331.20;;;;;;4936303;29;20071;-67
2021/10/02 07:15:17;;;;;;;18.23;5.38;;;410.30;1305.60;;;;;;4936564;29;20035;-67
2021/10/02 07:17:43;;;;;;;14.32;4.45;;;410.40;1280.00;;;;;;4936482;29;20024;-66
2021/10/02 07:20:10;;;;;;;16.35;5.55;;;410.50;1280.00;;;;;;4936216;29;20351;-67
2021/10/02 07:22:38;;;;;;;19.77;5.80;;;435.30;1280.00;;;;;;4936472;29;20049;-67
2021/10/02 07:25:06;;;;;;;49.47;6.82;;;435.40;1254.40;;;;;;4936167;29;20035;-67
2021/10/02 07:27:32;;;;;;;22.80;6.13;;;435.60;1228.80;;;;;;4936256;29;20103;-67
2021/10/02 07:29:57;;;;;;;35.78;4.95;;;435.70;1228.80;;;;;;4936161;29;20115;-67
2021/10/02 07:32:24;;;;;;;23.05;5.88;;;435.80;1177.60;;;;;;4936427;29;20534;-67
2021/10/02 07:34:53;;;;;;;13.23;4.55;;;436.00;1203.20;;;;;;4936218;29;20036;-67
2021/10/02 07:37:19;;;;;;;20.17;5.03;;;436.10;1203.20;;;;;;4918261;29;20367;-67
2021/10/02 07:39:45;;;;;;;34.13;4.93;;;460.80;1203.20;;;;;;4935870;29;20431;-67
2021/10/02 07:42:16;;;;;;;19.23;5.30;;;460.90;1177.60;;;;;;4936114;29;20537;-67
2021/10/02 07:44:43;;;;;;;25.17;4.80;;;461.10;1177.60;;;;;;4936043;29;20141;-66
2021/10/02 07:47:10;;;;;;;31.23;5.40;;;461.20;1152.00;;;;;;4935743;29;20019;-66
2021/10/02 07:49:37;;;;;;;26.90;5.32;;;461.30;1152.00;;;;;;4935861;29;20039;-67
2021/10/02 07:52:05;;;;;;;25.95;5.03;;;461.50;1152.00;;;;;;4935829;29;20032;-67
2021/10/02 07:54:32;;;;;;;76.30;7.97;;;461.60;1152.00;;;;;;4935771;29;20030;-67
2021/10/02 07:56:59;;;;;;;63.13;6.38;;;461.70;1126.40;;;;;;4935803;29;20485;-67
2021/10/02 07:59:26;;;;;;;22.20;5.47;;;486.40;1100.80;;;;;;4935887;29;20050;-68
2021/10/02 08:01:52;;;;;;;29.23;5.30;;;486.50;1100.80;;;;;;4935861;29;20031;-69
2021/10/02 08:04:18;;;;;;;31.73;5.55;;;486.60;1100.80;;;;;;4935867;29;20042;-68
2021/10/02 08:06:45;;;;;;;28.85;5.85;;;486.70;1100.80;;;;;;4939311;29;20378;-68
2021/10/02 08:09:11;;;;;;;25.42;5.28;;;486.80;1075.20;;;;;;4939535;29;20070;-69
2021/10/02 08:11:38;;;;;;;18.08;5.80;;;486.90;1075.20;;;;;;4939453;29;20055;-69
2021/10/02 08:14:06;;;;;;;52.30;6.13;;;487.00;1075.20;;;;;;4939766;29;20480;-69
2021/10/02 08:16:32;;;;;;;51.00;6.72;;;487.00;1049.60;;;;;;4939222;29;20082;-72
2021/10/02 08:19:00;;;;;;;20.90;5.70;;;487.10;1049.60;;;;;;4938419;29;20031;-73
2021/10/02 08:21:27;;;;;;;25.92;5.38;;;487.20;1049.60;;;;;;4921250;29;20063;-72
2021/10/02 08:23:54;;;;;;;20.00;4.75;;;487.30;1024.00;;;;;;4938656;29;20024;-72
2021/10/02 08:26:20;;;;;;;14.95;5.28;;;512.00;1024.00;;;;;;4938690;29;20019;-71
2021/10/02 08:28:50;;;;;;;27.17;4.95;;;512.00;1024.00;;;;;;4938481;29;20031;-70
2021/10/02 08:31:18;;;;;;;17.83;4.82;;;512.10;998.40;;;;;;4934036;29;20080;-69
2021/10/02 08:33:44;;;;;;;28.27;4.93;;;512.30;998.40;;;;;;4938566;29;20038;-69
2021/10/02 08:36:11;;;;;;;26.77;4.18;;;512.40;998.40;;;;;;4938346;29;20051;-70
2021/10/02 08:38:37;;;;;;;23.10;4.78;;;512.50;972.80;;;;;;4921020;29;20028;-69
2021/10/02 08:41:04;;;;;;;28.00;5.70;;;512.60;972.80;;;;;;4937889;29;20036;-70
2021/10/02 08:43:32;;;;;;;24.52;4.35;;;512.60;947.20;;;;;;4937883;29;20020;-69
2021/10/02 08:46:03;;;;;;;25.88;4.65;;;512.80;947.20;;;;;;4937631;29;20027;-68
2021/10/02 08:48:29;;;;;;;29.42;5.45;;;512.90;921.60;;;;;;4937893;29;20035;-69
2021/10/02 08:50:57;;;;;;;18.92;4.70;;;512.90;921.60;;;;;;4937742;29;20035;-68
2021/10/02 08:53:27;;;;;;;31.40;7.00;;;512.90;921.60;;;;;;4937925;29;20020;-68
2021/10/02 08:55:54;;;;;;;25.38;5.15;;;512.90;921.60;;;;;;4937971;29;20448;-69
2021/10/02 08:58:20;;;;;;;24.08;4.72;;;537.60;947.20;;;;;;4937802;29;20565;-69
2021/10/02 09:00:46;;;;;;;17.08;4.57;;;537.70;921.60;;;;;;4937902;29;20055;-69
2021/10/02 09:03:12;;;;;;;16.33;4.35;;;537.70;921.60;;;;;;4937638;29;20737;-69
2021/10/02 09:05:38;;;;;;;25.88;5.10;;;537.80;921.60;;;;;;4937643;29;20079;-69
2021/10/02 09:08:04;;;;;;;23.67;5.22;;;537.80;896.00;;;;;;4937805;29;20023;-69
2021/10/02 09:10:33;;;;;;;18.08;4.55;;;537.90;921.60;;;;;;4937563;29;20486;-68
2021/10/02 09:12:59;;;;;;;27.90;5.05;;;537.90;921.60;;;;;;4937650;29;20046;-68
2021/10/02 09:15:25;;;;;;;31.20;6.18;;;538.00;921.60;;;;;;4937552;29;20417;-68
2021/10/02 09:17:51;;;;;;;23.40;4.78;;;538.10;896.00;;;;;;4931894;29;20039;-69
2021/10/02 09:20:18;;;;;;;24.02;4.30;;;538.10;896.00;;;;;;4937575;29;20473;-69
2021/10/02 09:23:06;;;;;;;22.15;4.80;;;538.20;896.00;;;;;;4937155;29;20612;-68
2021/10/02 09:25:34;;;;;;;13.18;3.95;;;538.20;896.00;;;;;;4929466;29;20043;-68
2021/10/02 09:28:04;;;;;;;11.05;3.95;;;538.30;896.00;;;;;;4933624;29;20103;-68
2021/10/02 09:30:30;;;;;;;19.17;4.43;;;538.40;896.00;;;;;;4932163;29;20036;-69
2021/10/02 09:33:13;;;;;;;24.58;5.85;;;538.40;870.40;;;;;;4936727;29;20032;-69
2021/10/02 09:35:42;;;;;;;20.88;4.88;;;538.40;870.40;;;;;;4927910;29;20055;-69
2021/10/02 09:38:18;;;;;;;25.63;5.10;;;538.50;870.40;;;;;;4936910;29;20482;-68
2021/10/02 09:40:57;;;;;;;18.17;3.60;;;538.50;870.40;;;;;;4932717;29;20024;-69
2021/10/02 09:43:24;;;;;;;32.80;4.75;;;563.20;896.00;;;;;;4932861;29;20023;-70
2021/10/02 09:45:51;;;;;;;19.50;4.32;;;563.20;896.00;;;;;;4937010;29;20020;-68
2021/10/02 09:48:37;;;;;;;13.88;4.32;;;563.20;896.00;;;;;;4937337;29;20031;-69
2021/10/02 09:51:09;;;;;;;19.30;4.47;;;563.20;896.00;;;;;;4932563;29;20032;-68
2021/10/02 09:53:42;;;;;;;21.60;5.00;;;563.30;896.00;;;;;;4931331;29;20494;-68
2021/10/02 09:56:11;;;;;;;19.55;4.45;;;563.30;896.00;;;;;;4928090;29;20430;-68
2021/10/02 09:58:37;;;;;;;21.70;4.35;;;563.30;870.40;;;;;;4928703;29;20016;-69
2021/10/02 10:01:04;;;;;;;21.77;4.32;;;563.40;870.40;;;;;;4923375;29;20031;-68
2021/10/02 10:03:59;;;;;;;34.83;5.07;;;563.40;870.40;;;;;;4931882;29;20042;-69
2021/10/02 10:06:27;;;;;;;36.63;4.57;;;563.50;870.40;;;;;;4850451;29;20034;-69
2021/10/02 10:09:10;;;;;;;30.55;4.50;;;563.50;870.40;;;;;;4848652;29;20055;-68
2021/10/02 10:11:43;;;;;;;20.05;4.47;;;563.60;844.80;;;;;;4850108;29;20109;-68
2021/10/02 10:14:17;;;;;;;20.90;4.18;;;563.60;844.80;;;;;;4850468;29;20022;-70
2021/10/02 10:16:42;;;;;;;16.38;4.57;;;563.60;870.40;;;;;;4846401;29;20026;-69
2021/10/02 10:19:35;;;;;;;16.73;4.00;;;563.60;870.40;;;;;;4849352;29;20075;-69
2021/10/02 10:22:19;;;;;;;8.98;3.78;;;563.70;870.40;;;;;;4848480;29;20069;-69
2021/10/02 10:24:57;;;;;;;14.43;4.18;;;563.70;870.40;;;;;;4848748;29;20034;-68
2021/10/02 10:27:40;;;;;;;12.90;4.10;;;563.70;870.40;;;;;;4846369;29;20049;-69
2021/10/02 10:30:16;;;;;;;11.35;3.72;;;563.80;844.80;;;;;;4847912;29;20393;-70
2021/10/02 10:33:03;;;;;;;12.73;3.53;;;563.90;870.40;;;;;;4848646;29;20035;-69
2021/10/02 10:35:40;;;;;;;25.52;4.50;;;564.00;844.80;;;;;;4849252;29;20042;-68
2021/10/02 10:38:09;;;;;;;32.30;4.88;;;564.00;844.80;;;;;;4841345;29;20155;-69
2021/10/02 10:40:37;;;;;;;11.40;3.50;;;564.00;844.80;;;;;;4841368;29;20120;-68
2021/10/02 10:43:03;;;;;;;17.25;3.90;;;564.00;844.80;;;;;;4876254;29;20043;-69
2021/10/02 10:45:30;;;;;;;9.80;3.20;;;564.10;844.80;;;;;;4899041;29;20032;-69
2021/10/02 10:47:56;;;;;;;10.23;3.60;;;564.10;844.80;;;;;;4898627;29;20080;-70
2021/10/02 10:50:23;;;;;;;24.52;5.07;;;588.80;819.20;;;;;;4898797;29;20053;-69
2021/10/02 10:52:49;;;;;;;23.15;4.35;;;588.80;844.80;;;;;;4898638;29;20103;-69
2021/10/02 10:55:19;;;;;;;31.90;5.18;;;588.80;844.80;;;;;;4898726;29;20052;-69
2021/10/02 10:57:53;;;;;;;17.88;3.83;;;588.90;819.20;;;;;;4898786;29;20036;-69
2021/10/02 11:00:31;;;;;;;8.80;3.78;;;588.90;793.60;;;;;;4898972;29;20036;-69
2021/10/02 11:03:03;;;;;;;13.05;4.43;;;588.90;819.20;;;;;;4898684;29;20033;-69
2021/10/02 11:05:39;;;;;;;20.13;4.38;;;588.90;819.20;;;;;;4898861;29;20107;-69
2021/10/02 11:08:12;;;;;;;15.98;4.15;;;588.90;793.60;;;;;;4898694;29;20051;-69
2021/10/02 11:10:41;;;;;;;15.85;3.65;;;588.90;819.20;;;;;;4898706;29;20040;-70
2021/10/02 11:13:15;;;;;;;9.93;3.88;;;588.80;819.20;;;;;;4898581;29;20079;-69
2021/10/02 11:15:42;;;;;;;;;;;588.80;844.80;;;;;;4899167;29;20036;-69
2021/10/02 11:18:42;;;;;;;13.60;5.05;;;588.80;819.20;;;;;;4898533;29;19946;-69
2021/10/02 11:21:09;;;;;;;17.55;3.53;;;588.80;844.80;;;;;;4898557;29;20067;-69
2021/10/02 11:23:38;;;;;;;13.82;3.70;;;588.80;844.80;;;;;;4898276;29;20035;-69
2021/10/02 11:26:11;;;;;;;23.38;4.38;;;588.90;819.20;;;;;;4898318;29;20024;-69
2021/10/02 11:28:37;;;;;;;9.57;3.85;;;588.90;844.80;;;;;;4898171;29;20036;-69
2021/10/02 11:31:13;;;;;;;5.93;2.90;;;588.90;844.80;;;;;;4897873;29;20040;-69
2021/10/02 11:33:50;;;;;;;15.45;4.00;;;589.00;844.80;;;;;;4898254;29;20040;-69
2021/10/02 11:36:31;;;;;;;23.73;3.92;;;589.10;844.80;;;;;;4897997;29;20049;-69
2021/10/02 11:39:12;;;;;;;9.55;4.00;;;589.10;844.80;;;;;;4898188;29;20088;-69
2021/10/02 11:41:57;;;;;;;11.48;3.80;;;589.10;819.20;;;;;;4901743;29;20031;-69
2021/10/02 11:44:32;;;;;;;14.13;3.85;;;589.10;819.20;;;;;;4902100;29;20024;-69
2021/10/02 11:47:24;;;;;;;25.52;4.60;;;589.10;819.20;;;;;;4902157;29;20116;-69
2021/10/02 11:50:08;;;;;;;20.45;4.20;;;589.20;819.20;;;;;;4862562;29;20045;-69
2021/10/02 11:52:43;;;;;;;18.98;4.40;;;589.20;819.20;;;;;;4862685;29;20657;-69
2021/10/02 11:55:38;;;;;;;18.13;4.10;;;589.10;819.20;;;;;;4862717;29;20133;-69
2021/10/02 11:58:09;;;;;;;16.23;4.07;;;589.10;819.20;;;;;;4862527;29;20037;-69
2021/10/02 12:00:44;;;;;;;14.80;3.95;;;589.10;819.20;;;;;;4862454;29;20096;-69
2021/10/02 12:03:11;;;;;;;21.13;4.00;;;589.20;819.20;;;;;;4862570;29;20142;-69
2021/10/02 12:05:40;;;;;;;11.73;4.15;;;589.20;844.80;;;;;;4862477;29;20029;-69
2021/10/02 12:08:07;;;;;;;11.38;4.45;;;589.20;844.80;;;;;;4862357;29;20037;-69
2021/10/02 12:11:00;;;;;;;18.50;5.15;;;589.20;819.20;;;;;;4862496;29;20065;-69
2021/10/02 12:13:32;;;;;;;12.13;3.70;;;589.20;819.20;;;;;;4862282;29;20057;-69
2021/10/02 12:16:01;;;;;;;10.95;4.15;;;589.30;819.20;;;;;;4862375;29;20061;-69
2021/10/02 12:18:47;;;;;;;10.18;3.90;;;589.30;819.20;;;;;;4862669;29;20583;-69
2021/10/02 12:21:33;;;;;;;12.32;4.22;;;589.20;819.20;;;;;;4862418;29;20078;-69
2021/10/02 12:24:11;;;;;;;9.70;4.05;;;589.30;819.20;;;;;;4807204;29;20374;-69
2021/10/02 12:26:47;;;;;;;20.67;3.92;;;589.30;819.20;;;;;;4814642;29;20132;-69
2021/10/02 12:29:16;;;;;;;16.23;4.68;;;589.30;793.60;;;;;;4825239;29;20046;-69
2021/10/02 12:32:01;;;;;;;17.65;4.55;;;589.30;793.60;;;;;;4825188;29;20561;-69
2021/10/02 12:34:56;;;;;;;11.02;3.63;;;589.30;793.60;;;;;;4825209;29;20524;-69
2021/10/02 12:37:33;;;;;;;13.25;3.90;;;589.40;819.20;;;;;;4811882;29;20047;-69
2021/10/02 12:40:06;;;;;;;6.13;3.78;;;589.40;819.20;;;;;;4807043;29;20027;-69
2021/10/02 12:42:35;;;;;;;9.00;3.53;;;589.40;819.20;;;;;;4806940;29;20406;-69
2021/10/02 12:45:07;;;;;;;15.57;4.20;;;589.30;819.20;;;;;;4807043;29;20031;-69
2021/10/02 12:47:33;;;;;;;14.18;4.00;;;589.30;793.60;;;;;;4806984;29;20047;-69
2021/10/02 12:50:01;;;;;;;26.38;5.40;;;589.30;793.60;;;;;;4806811;29;20133;-69
2021/10/02 12:52:28;;;;;;;12.20;5.97;;;589.30;793.60;;;;;;4805574;29;20045;-69
2021/10/02 12:54:59;;;;;;;16.90;4.78;;;589.30;793.60;;;;;;4806723;29;20038;-67
2021/10/02 12:57:25;;;;;;;10.93;3.83;;;589.20;793.60;;;;;;4806792;29;20500;-70
2021/10/02 13:00:12;;;;;;;13.45;4.88;;;589.20;819.20;;;;;;4806341;29;20039;-70
2021/10/02 13:02:49;;;;;;;10.30;3.70;;;589.20;819.20;;;;;;4908303;29;20119;-70
2021/10/02 13:05:19;;;;;;;22.27;4.72;;;589.20;819.20;;;;;;4905281;29;20024;-70
2021/10/02 13:07:54;;;;;;;17.20;4.55;;;589.20;819.20;;;;;;4917294;29;20059;-70
2021/10/02 13:10:34;;;;;;;16.45;3.85;;;589.20;819.20;;;;;;4910249;29;20092;-70
2021/10/02 13:13:11;;;;;;;10.85;3.30;;;589.10;793.60;;;;;;4916910;29;20036;-70
2021/10/02 13:15:41;;;;;;;12.02;3.88;;;589.10;819.20;;;;;;4916403;29;20426;-70
2021/10/02 13:18:14;;;;;;;14.70;4.07;;;589.10;819.20;;;;;;4914559;29;20022;-70
2021/10/02 13:20:40;;;;;;;11.25;3.90;;;589.10;819.20;;;;;;4917079;29;20040;-71